Time;durP1;ratioP1;P1;durP2;ratioP2;P2;SDS_P1;SDS_P2;PMS_P1;PMS_P2;Temp;Humidity;BMP_temperature;BMP_pressure;BME280_temperature;BME280_humidity;BME280_pressure;Samples;Min_cycle;Max_cycle;Signal;HPM_P1;HPM_P2
2021/05/26 00:01:56;;;;;;;4.60;1.60;;;;;;;;;;5035002;28;20076;-77
2021/05/26 00:04:41;;;;;;;3.15;1.50;;;;;;;;;;5030376;28;20186;-78
2021/05/26 00:07:25;;;;;;;3.40;1.63;;;;;;;;;;5017514;28;20048;-78
2021/05/26 00:10:10;;;;;;;3.47;1.50;;;;;;;;;;5018793;28;20398;-78
2021/05/26 00:12:54;;;;;;;2.72;1.77;;;;;;;;;;5014147;28;20049;-78
2021/05/26 00:15:39;;;;;;;2.78;1.60;;;;;;;;;;5025379;28;20488;-78
2021/05/26 00:18:23;;;;;;;4.30;1.42;;;;;;;;;;5031209;28;20052;-78
2021/05/26 00:21:09;;;;;;;2.67;1.50;;;;;;;;;;5045405;28;20400;-78
2021/05/26 00:23:53;;;;;;;3.15;1.50;;;;;;;;;;5029842;28;20043;-77
2021/05/26 00:26:38;;;;;;;3.08;1.60;;;;;;;;;;5035681;28;20048;-76
2021/05/26 00:29:23;;;;;;;3.25;1.58;;;;;;;;;;5041138;28;20834;-77
2021/05/26 00:32:07;;;;;;;2.83;1.70;;;;;;;;;;5004071;28;20103;-77
2021/05/26 00:34:52;;;;;;;3.03;1.38;;;;;;;;;;5027339;28;20515;-76
2021/05/26 00:37:36;;;;;;;4.28;1.75;;;;;;;;;;5024734;28;20052;-77
2021/05/26 00:40:21;;;;;;;2.78;1.50;;;;;;;;;;5043031;28;20135;-77
2021/05/26 00:43:05;;;;;;;3.38;1.60;;;;;;;;;;5032018;28;20044;-77
2021/05/26 00:45:50;;;;;;;4.13;1.67;;;;;;;;;;5021733;28;20091;-76
2021/05/26 00:48:35;;;;;;;3.17;1.70;;;;;;;;;;5020467;28;20171;-77
2021/05/26 00:51:19;;;;;;;3.40;1.40;;;;;;;;;;5007932;28;20044;-77
2021/05/26 00:54:04;;;;;;;2.13;1.45;;;;;;;;;;5028851;28;20079;-77
2021/05/26 00:56:49;;;;;;;2.80;1.48;;;;;;;;;;5032377;28;20055;-76
2021/05/26 00:59:34;;;;;;;5.45;1.60;;;;;;;;;;5021618;28;20039;-77
2021/05/26 01:02:18;;;;;;;2.53;1.55;;;;;;;;;;5000942;28;20121;-77
2021/05/26 01:05:04;;;;;;;2.00;1.50;;;;;;;;;;5012747;28;20095;-76
2021/05/26 01:07:48;;;;;;;2.63;1.65;;;;;;;;;;5017168;28;20508;-77
2021/05/26 01:10:33;;;;;;;3.33;1.58;;;;;;;;;;5018071;28;20063;-77
2021/05/26 01:13:19;;;;;;;4.05;1.67;;;;;;;;;;5029120;28;20109;-77
2021/05/26 01:16:04;;;;;;;3.20;1.70;;;;;;;;;;5012958;28;20044;-77
2021/05/26 01:18:48;;;;;;;2.97;1.45;;;;;;;;;;5024873;28;20446;-77
2021/05/26 01:21:33;;;;;;;3.22;1.60;;;;;;;;;;5031597;28;20045;-76
2021/05/26 01:24:18;;;;;;;3.33;1.60;;;;;;;;;;5020792;28;20040;-77
2021/05/26 01:27:03;;;;;;;3.50;1.60;;;;;;;;;;5012144;28;20432;-76
2021/05/26 01:29:48;;;;;;;2.83;1.60;;;;;;;;;;5027916;28;20477;-77
2021/05/26 01:32:38;;;;;;;4.00;1.80;;;;;;;;;;5025662;28;20124;-77
2021/05/26 01:35:22;;;;;;;2.88;1.70;;;;;;;;;;5024773;28;20507;-77
2021/05/26 01:38:07;;;;;;;3.13;1.50;;;;;;;;;;5017421;28;20136;-77
2021/05/26 01:41:01;;;;;;;3.20;1.73;;;;;;;;;;5021622;28;20052;-76
2021/05/26 01:43:47;;;;;;;2.28;1.67;;;;;;;;;;5001036;28;20047;-76
2021/05/26 01:46:31;;;;;;;2.20;1.60;;;;;;;;;;5030640;28;20047;-77
2021/05/26 01:49:15;;;;;;;4.15;1.52;;;;;;;;;;5020666;28;20050;-77
2021/05/26 01:52:00;;;;;;;2.90;1.70;;;;;;;;;;5024537;28;20040;-77
2021/05/26 01:54:44;;;;;;;3.83;1.85;;;;;;;;;;5023903;28;20048;-77
2021/05/26 01:57:29;;;;;;;3.33;1.70;;;;;;;;;;5029484;28;20146;-77
2021/05/26 02:00:14;;;;;;;2.45;1.70;;;;;;;;;;5039551;28;20079;-77
2021/05/26 02:02:59;;;;;;;5.60;1.75;;;;;;;;;;5025258;28;20039;-77
2021/05/26 02:05:44;;;;;;;2.75;1.80;;;;;;;;;;5032853;28;20485;-77
2021/05/26 02:08:28;;;;;;;3.38;1.80;;;;;;;;;;5028860;28;20058;-77
2021/05/26 02:14:16;;;;;;;2.70;1.60;;;;;;;;;;5029022;28;20095;-77
2021/05/26 02:17:01;;;;;;;4.65;1.88;;;;;;;;;;5046154;28;20543;-77
2021/05/26 02:19:46;;;;;;;2.47;1.52;;;;;;;;;;5019148;28;20094;-77
2021/05/26 02:22:30;;;;;;;3.53;1.60;;;;;;;;;;5016327;28;20816;-77
2021/05/26 02:25:15;;;;;;;2.88;1.50;;;;;;;;;;5020812;28;20150;-77
2021/05/26 02:27:59;;;;;;;4.93;1.65;;;;;;;;;;5049897;28;20036;-77
2021/05/26 02:30:44;;;;;;;2.97;1.75;;;;;;;;;;5029608;28;20047;-77
2021/05/26 02:33:28;;;;;;;4.13;1.80;;;;;;;;;;5028914;28;20059;-77
2021/05/26 02:36:13;;;;;;;4.13;1.80;;;;;;;;;;5015350;28;20091;-77
2021/05/26 02:38:58;;;;;;;2.00;1.58;;;;;;;;;;5024718;28;20041;-78
2021/05/26 02:41:43;;;;;;;3.20;1.42;;;;;;;;;;5024611;28;20060;-77
2021/05/26 02:44:27;;;;;;;2.88;1.63;;;;;;;;;;5014283;28;20052;-77
2021/05/26 02:47:12;;;;;;;3.55;1.40;;;;;;;;;;5013872;28;20075;-77
2021/05/26 02:49:56;;;;;;;4.20;1.70;;;;;;;;;;5012340;28;20048;-77
2021/05/26 02:52:41;;;;;;;3.22;1.80;;;;;;;;;;5040448;28;20139;-77
2021/05/26 02:55:26;;;;;;;1.98;1.50;;;;;;;;;;5018537;28;20044;-77
2021/05/26 02:58:10;;;;;;;2.35;1.40;;;;;;;;;;5014460;28;20052;-77
2021/05/26 03:00:54;;;;;;;2.80;1.60;;;;;;;;;;5021006;28;20582;-77
2021/05/26 03:03:39;;;;;;;3.28;1.48;;;;;;;;;;5028160;28;20048;-77
2021/05/26 03:06:24;;;;;;;3.60;1.70;;;;;;;;;;5045551;28;20078;-77
2021/05/26 03:09:09;;;;;;;3.58;1.65;;;;;;;;;;5044168;28;20041;-77
2021/05/26 03:11:53;;;;;;;3.00;1.65;;;;;;;;;;5032199;28;20520;-77
2021/05/26 03:14:38;;;;;;;3.05;1.70;;;;;;;;;;5007998;28;20078;-77
2021/05/26 03:17:24;;;;;;;3.55;1.77;;;;;;;;;;5048115;28;20505;-77
2021/05/26 03:20:11;;;;;;;2.33;1.65;;;;;;;;;;5002835;28;20036;-77
2021/05/26 03:22:55;;;;;;;3.88;1.60;;;;;;;;;;5028376;28;20051;-77
2021/05/26 03:25:40;;;;;;;5.20;1.80;;;;;;;;;;5018842;28;20048;-77
2021/05/26 03:28:24;;;;;;;2.13;1.50;;;;;;;;;;5033108;28;20036;-77
2021/05/26 03:31:09;;;;;;;2.35;1.63;;;;;;;;;;5017687;28;20413;-77
2021/05/26 03:33:53;;;;;;;3.78;1.67;;;;;;;;;;5028084;28;20079;-77
2021/05/26 03:36:38;;;;;;;4.10;1.60;;;;;;;;;;5043962;28;20043;-76
2021/05/26 03:39:23;;;;;;;2.60;1.60;;;;;;;;;;5027175;28;20075;-76
2021/05/26 03:42:08;;;;;;;3.53;1.58;;;;;;;;;;5028195;28;20040;-77
2021/05/26 03:44:53;;;;;;;2.05;1.48;;;;;;;;;;5030451;28;20051;-77
2021/05/26 03:47:38;;;;;;;3.55;1.60;;;;;;;;;;5017689;28;20665;-76
2021/05/26 03:50:22;;;;;;;2.50;1.75;;;;;;;;;;5013754;28;20043;-76
2021/05/26 03:53:08;;;;;;;2.45;1.60;;;;;;;;;;5020169;28;20040;-76
2021/05/26 03:55:52;;;;;;;2.65;1.55;;;;;;;;;;5025071;28;20067;-77
2021/05/26 03:58:37;;;;;;;3.35;1.48;;;;;;;;;;5020839;28;20079;-77
2021/05/26 04:01:22;;;;;;;3.85;1.65;;;;;;;;;;5035069;28;20091;-77
2021/05/26 04:04:06;;;;;;;2.60;1.50;;;;;;;;;;5010532;28;20094;-77
2021/05/26 04:06:50;;;;;;;3.95;1.70;;;;;;;;;;5017469;28;20039;-77
2021/05/26 04:09:35;;;;;;;3.63;1.50;;;;;;;;;;5005360;28;20088;-77
2021/05/26 04:12:20;;;;;;;2.63;1.45;;;;;;;;;;5023334;28;20051;-76
2021/05/26 04:15:06;;;;;;;2.88;1.70;;;;;;;;;;5044981;28;20699;-77
2021/05/26 04:17:51;;;;;;;2.22;1.40;;;;;;;;;;5032541;28;20420;-76
2021/05/26 04:20:35;;;;;;;2.53;1.52;;;;;;;;;;5027671;28;20551;-77
2021/05/26 04:23:20;;;;;;;2.90;1.70;;;;;;;;;;5014611;28;20068;-76
2021/05/26 04:26:04;;;;;;;3.53;1.52;;;;;;;;;;5009433;28;20109;-77
2021/05/26 04:28:49;;;;;;;2.65;1.60;;;;;;;;;;5012862;28;20041;-77
2021/05/26 04:31:33;;;;;;;4.82;1.85;;;;;;;;;;5031035;28;20040;-77
2021/05/26 04:34:18;;;;;;;2.85;1.50;;;;;;;;;;5023684;28;20472;-76
2021/05/26 04:37:03;;;;;;;3.90;1.75;;;;;;;;;;5024658;28;20440;-76
2021/05/26 04:39:47;;;;;;;3.42;1.50;;;;;;;;;;5047764;28;20086;-77
2021/05/26 04:42:32;;;;;;;2.40;1.50;;;;;;;;;;5040336;28;20051;-76
2021/05/26 04:45:17;;;;;;;3.40;1.60;;;;;;;;;;5003487;28;20035;-77
2021/05/26 04:48:02;;;;;;;2.80;1.70;;;;;;;;;;5018117;28;20059;-76
2021/05/26 04:50:46;;;;;;;3.15;1.65;;;;;;;;;;5045563;28;20040;-75
2021/05/26 04:53:31;;;;;;;3.13;1.45;;;;;;;;;;5019467;28;20052;-76
2021/05/26 04:56:16;;;;;;;2.72;1.85;;;;;;;;;;5020993;28;20082;-76
2021/05/26 04:59:01;;;;;;;3.22;1.52;;;;;;;;;;5016045;28;20130;-76
2021/05/26 05:01:45;;;;;;;2.28;1.52;;;;;;;;;;5040458;28;20044;-76
2021/05/26 05:04:30;;;;;;;3.05;1.67;;;;;;;;;;5015387;28;20039;-76
2021/05/26 05:07:14;;;;;;;2.70;1.45;;;;;;;;;;5029041;28;20044;-76
2021/05/26 05:09:59;;;;;;;3.75;1.70;;;;;;;;;;5043577;28;20092;-76
2021/05/26 05:12:43;;;;;;;3.55;1.70;;;;;;;;;;5026035;28;20164;-76
2021/05/26 05:15:27;;;;;;;2.17;1.40;;;;;;;;;;5011604;28;20082;-76
2021/05/26 05:18:12;;;;;;;2.30;1.63;;;;;;;;;;5030162;28;20455;-76
2021/05/26 05:20:57;;;;;;;3.45;1.60;;;;;;;;;;5046117;28;20124;-76
2021/05/26 05:23:42;;;;;;;2.65;1.75;;;;;;;;;;5038660;28;20429;-76
2021/05/26 05:26:26;;;;;;;3.25;1.50;;;;;;;;;;5030537;28;20039;-76
2021/05/26 05:29:11;;;;;;;5.53;1.70;;;;;;;;;;5027757;28;20835;-76
2021/05/26 05:31:55;;;;;;;3.42;1.70;;;;;;;;;;5021735;28;20076;-76
2021/05/26 05:34:40;;;;;;;3.67;1.83;;;;;;;;;;5022707;28;20087;-75
2021/05/26 05:37:24;;;;;;;4.00;1.90;;;;;;;;;;5050653;28;20499;-76
2021/05/26 05:40:10;;;;;;;3.58;1.60;;;;;;;;;;5027644;28;20052;-76
2021/05/26 05:42:54;;;;;;;3.33;1.88;;;;;;;;;;5017182;28;20055;-76
2021/05/26 05:45:39;;;;;;;2.20;1.58;;;;;;;;;;5025980;28;20444;-76
2021/05/26 05:48:24;;;;;;;2.75;1.67;;;;;;;;;;5011975;28;20616;-75
2021/05/26 05:51:08;;;;;;;2.67;1.60;;;;;;;;;;5043508;28;20143;-76
2021/05/26 05:53:53;;;;;;;3.47;1.60;;;;;;;;;;5029749;28;20139;-76
2021/05/26 05:56:37;;;;;;;3.40;2.08;;;;;;;;;;5012013;28;20045;-76
2021/05/26 05:59:21;;;;;;;3.92;1.80;;;;;;;;;;5028274;28;20056;-76
2021/05/26 06:02:06;;;;;;;2.28;1.80;;;;;;;;;;5012598;28;20213;-76
2021/05/26 06:04:50;;;;;;;3.15;1.90;;;;;;;;;;5036780;28;20045;-76
2021/05/26 06:07:35;;;;;;;3.60;1.70;;;;;;;;;;5035477;28;20571;-75
2021/05/26 06:10:20;;;;;;;4.13;2.03;;;;;;;;;;5002577;28;20107;-77
2021/05/26 06:13:08;;;;;;;3.80;1.98;;;;;;;;;;5045787;28;20721;-76
2021/05/26 06:15:52;;;;;;;3.75;1.90;;;;;;;;;;5029885;28;20402;-76
2021/05/26 06:18:36;;;;;;;2.83;1.65;;;;;;;;;;5010041;28;20560;-77
2021/05/26 06:21:21;;;;;;;3.42;1.92;;;;;;;;;;5029195;28;20064;-76
2021/05/26 06:24:06;;;;;;;3.13;1.90;;;;;;;;;;5027700;28;20128;-76
2021/05/26 06:26:51;;;;;;;5.05;2.55;;;;;;;;;;5030583;28;20074;-76
2021/05/26 06:29:35;;;;;;;2.72;1.70;;;;;;;;;;5016856;28;20547;-75
2021/05/26 06:32:20;;;;;;;4.38;1.90;;;;;;;;;;5036873;28;20032;-76
2021/05/26 06:35:04;;;;;;;5.05;1.90;;;;;;;;;;5021904;28;20045;-76
2021/05/26 06:37:49;;;;;;;3.90;1.85;;;;;;;;;;5026653;28;20048;-76
2021/05/26 06:40:34;;;;;;;4.68;1.85;;;;;;;;;;5046324;28;20043;-76
2021/05/26 06:43:19;;;;;;;4.38;2.00;;;;;;;;;;5029855;28;20147;-76
2021/05/26 06:46:03;;;;;;;3.17;1.95;;;;;;;;;;5019540;28;20147;-76
2021/05/26 06:48:48;;;;;;;3.95;1.73;;;;;;;;;;5019471;28;20060;-76
2021/05/26 06:51:33;;;;;;;2.50;1.73;;;;;;;;;;5010840;28;20209;-75
2021/05/26 06:54:17;;;;;;;2.80;1.67;;;;;;;;;;5025302;28;20122;-75
2021/05/26 06:57:02;;;;;;;5.75;2.60;;;;;;;;;;5024601;28;20044;-76
2021/05/26 06:59:46;;;;;;;3.00;2.00;;;;;;;;;;5043933;28;20154;-76
2021/05/26 07:02:31;;;;;;;2.75;1.65;;;;;;;;;;5018200;28;20420;-76
2021/05/26 07:05:15;;;;;;;5.22;1.90;;;;;;;;;;5025231;28;20527;-76
2021/05/26 07:08:00;;;;;;;3.03;1.90;;;;;;;;;;5024861;28;20083;-76
2021/05/26 07:10:45;;;;;;;4.50;1.85;;;;;;;;;;5029041;28;20114;-75
2021/05/26 07:13:30;;;;;;;3.03;1.95;;;;;;;;;;5041221;28;20176;-76
2021/05/26 07:16:14;;;;;;;2.05;1.65;;;;;;;;;;5043297;28;20044;-75
2021/05/26 07:19:00;;;;;;;3.22;1.75;;;;;;;;;;5029346;28;20505;-75
2021/05/26 07:21:45;;;;;;;3.90;1.77;;;;;;;;;;5010193;28;20140;-76
2021/05/26 07:24:29;;;;;;;3.08;1.70;;;;;;;;;;5034989;28;20044;-76
2021/05/26 07:27:14;;;;;;;3.75;1.98;;;;;;;;;;5028375;28;20032;-75
2021/05/26 07:29:58;;;;;;;3.22;1.80;;;;;;;;;;5010535;28;20040;-76
2021/05/26 07:32:43;;;;;;;4.22;1.90;;;;;;;;;;5014095;28;20116;-76
2021/05/26 07:35:28;;;;;;;2.97;1.80;;;;;;;;;;5010305;28;20655;-76
2021/05/26 07:38:13;;;;;;;2.95;1.80;;;;;;;;;;5009583;28;20047;-76
2021/05/26 07:40:57;;;;;;;4.60;1.80;;;;;;;;;;5011317;28;20085;-76
2021/05/26 07:43:42;;;;;;;3.70;1.83;;;;;;;;;;5036581;28;20139;-76
2021/05/26 07:46:26;;;;;;;4.03;2.10;;;;;;;;;;5027927;28;20130;-75
2021/05/26 07:49:11;;;;;;;4.15;2.00;;;;;;;;;;5021291;28;20071;-75
2021/05/26 07:52:02;;;;;;;3.95;2.03;;;;;;;;;;5014831;28;20186;-76
2021/05/26 07:54:47;;;;;;;3.97;1.90;;;;;;;;;;5010059;28;20076;-75
2021/05/26 07:57:31;;;;;;;4.35;2.00;;;;;;;;;;5010879;28;20073;-75
2021/05/26 08:00:16;;;;;;;2.92;1.77;;;;;;;;;;5012978;28;20505;-76
2021/05/26 08:03:01;;;;;;;3.70;1.75;;;;;;;;;;5015999;28;20063;-75
2021/05/26 08:05:46;;;;;;;4.55;1.92;;;;;;;;;;5015960;28;20505;-76
2021/05/26 08:08:30;;;;;;;4.70;2.00;;;;;;;;;;5040525;28;20453;-76
2021/05/26 08:11:15;;;;;;;4.85;1.73;;;;;;;;;;5017501;28;20057;-76
2021/05/26 08:13:59;;;;;;;2.83;1.90;;;;;;;;;;5017089;28;20051;-76
2021/05/26 08:16:44;;;;;;;3.75;2.00;;;;;;;;;;5029581;28;20588;-75
2021/05/26 08:19:29;;;;;;;3.75;2.05;;;;;;;;;;5014035;28;20124;-76
2021/05/26 08:22:13;;;;;;;3.22;1.92;;;;;;;;;;5013527;28;20075;-75
2021/05/26 08:24:58;;;;;;;3.13;2.00;;;;;;;;;;5024121;28;20086;-76
2021/05/26 08:27:42;;;;;;;3.08;2.10;;;;;;;;;;5038103;28;20071;-75
2021/05/26 08:30:27;;;;;;;2.67;1.92;;;;;;;;;;5057786;28;20070;-75
2021/05/26 08:33:12;;;;;;;3.28;1.92;;;;;;;;;;5029725;28;20044;-76
2021/05/26 08:35:57;;;;;;;2.92;1.70;;;;;;;;;;5012958;28;20075;-75
2021/05/26 08:38:43;;;;;;;3.95;2.17;;;;;;;;;;5023168;28;20051;-76
2021/05/26 08:41:28;;;;;;;2.55;1.85;;;;;;;;;;5045389;28;20083;-76
2021/05/26 08:44:13;;;;;;;3.55;2.00;;;;;;;;;;5024908;28;20059;-76
2021/05/26 08:46:58;;;;;;;4.85;2.22;;;;;;;;;;5016657;28;20124;-76
2021/05/26 08:49:46;;;;;;;5.20;2.30;;;;;;;;;;5024465;28;20095;-76
2021/05/26 08:52:31;;;;;;;2.83;2.00;;;;;;;;;;5046313;28;20044;-76
2021/05/26 08:55:15;;;;;;;4.60;1.98;;;;;;;;;;5018442;28;20045;-76
2021/05/26 08:58:00;;;;;;;5.18;2.30;;;;;;;;;;5014186;28;20076;-76
2021/05/26 09:00:47;;;;;;;4.60;2.10;;;;;;;;;;5006309;28;20051;-76
2021/05/26 09:03:32;;;;;;;3.65;2.10;;;;;;;;;;5016865;28;20055;-75
2021/05/26 09:06:16;;;;;;;5.93;2.50;;;;;;;;;;5032533;28;20396;-75
2021/05/26 09:09:01;;;;;;;4.95;2.15;;;;;;;;;;5039858;28;20056;-75
2021/05/26 09:11:45;;;;;;;4.00;2.05;;;;;;;;;;5044904;28;20059;-76
2021/05/26 09:14:37;;;;;;;3.58;2.00;;;;;;;;;;5051725;28;20067;-75
2021/05/26 09:17:22;;;;;;;3.63;2.40;;;;;;;;;;5020214;28;20414;-75
2021/05/26 09:20:18;;;;;;;4.15;2.30;;;;;;;;;;5026126;28;20040;-75
2021/05/26 09:23:13;;;;;;;5.53;1.90;;;;;;;;;;5039575;28;20493;-74
2021/05/26 09:25:58;;;;;;;7.22;2.22;;;;;;;;;;5015932;28;20040;-75
2021/05/26 09:28:43;;;;;;;4.68;2.20;;;;;;;;;;5018056;28;20051;-75
2021/05/26 09:31:30;;;;;;;3.42;1.98;;;;;;;;;;5038678;28;20097;-76
2021/05/26 09:34:16;;;;;;;7.78;2.42;;;;;;;;;;5029768;28;20072;-76
2021/05/26 09:37:02;;;;;;;6.40;2.10;;;;;;;;;;5002660;28;20044;-75
2021/05/26 09:39:49;;;;;;;4.15;2.40;;;;;;;;;;4999237;28;20122;-76
2021/05/26 09:42:35;;;;;;;4.65;2.17;;;;;;;;;;5037901;28;20037;-76
2021/05/26 09:45:26;;;;;;;5.38;2.17;;;;;;;;;;5027718;28;20966;-75
2021/05/26 09:48:11;;;;;;;4.32;2.20;;;;;;;;;;5028534;28;20115;-76
2021/05/26 09:50:55;;;;;;;4.30;2.22;;;;;;;;;;5012827;28;20500;-76
2021/05/26 09:53:40;;;;;;;4.10;2.42;;;;;;;;;;5012187;28;20504;-76
2021/05/26 09:56:27;;;;;;;4.93;2.13;;;;;;;;;;5011936;28;20143;-75
2021/05/26 09:59:12;;;;;;;5.07;2.30;;;;;;;;;;5029663;28;20464;-75
2021/05/26 10:01:58;;;;;;;5.18;2.42;;;;;;;;;;5016769;28;20060;-75
2021/05/26 10:04:43;;;;;;;3.30;2.13;;;;;;;;;;5027693;28;20183;-75
2021/05/26 10:07:27;;;;;;;3.10;2.10;;;;;;;;;;5025746;28;20110;-75
2021/05/26 10:10:13;;;;;;;4.60;2.40;;;;;;;;;;5012717;28;20048;-76
2021/05/26 10:12:59;;;;;;;4.07;1.98;;;;;;;;;;5011581;28;20072;-76
2021/05/26 10:15:44;;;;;;;4.22;2.03;;;;;;;;;;5010193;28;20095;-75
2021/05/26 10:18:31;;;;;;;3.85;2.47;;;;;;;;;;5012278;28;20048;-76
2021/05/26 10:21:21;;;;;;;4.00;2.00;;;;;;;;;;5011566;28;20052;-76
2021/05/26 10:24:06;;;;;;;5.43;2.30;;;;;;;;;;5011900;28;20044;-76
2021/05/26 10:27:02;;;;;;;5.38;2.20;;;;;;;;;;5011511;28;20095;-75
2021/05/26 10:29:47;;;;;;;2.63;1.88;;;;;;;;;;4999111;28;20514;-76
2021/05/26 10:32:48;;;;;;;3.40;1.95;;;;;;;;;;5012383;28;20080;-76
2021/05/26 10:35:53;;;;;;;3.67;2.17;;;;;;;;;;4997614;28;20064;-76
2021/05/26 10:38:53;;;;;;;3.65;2.30;;;;;;;;;;5026804;28;20183;-75
2021/05/26 10:41:50;;;;;;;2.75;1.95;;;;;;;;;;5013836;28;20366;-75
2021/05/26 10:44:54;;;;;;;3.85;2.00;;;;;;;;;;5011499;28;20047;-76
2021/05/26 10:47:38;;;;;;;3.95;2.20;;;;;;;;;;5011535;28;20151;-76
2021/05/26 10:50:25;;;;;;;3.20;1.95;;;;;;;;;;5029460;28;20861;-76
2021/05/26 10:53:10;;;;;;;3.33;2.00;;;;;;;;;;5011188;28;20150;-76
2021/05/26 10:55:55;;;;;;;4.38;2.15;;;;;;;;;;5029178;28;20168;-75
2021/05/26 10:58:43;;;;;;;3.72;2.00;;;;;;;;;;5011187;28;20072;-76
2021/05/26 11:01:28;;;;;;;3.83;1.80;;;;;;;;;;5011472;28;20084;-75
2021/05/26 11:04:22;;;;;;;3.83;2.08;;;;;;;;;;5011627;28;20043;-76
2021/05/26 11:07:16;;;;;;;4.38;1.98;;;;;;;;;;5030816;28;20047;-76
2021/05/26 11:10:01;;;;;;;2.70;1.80;;;;;;;;;;5027363;28;20048;-76
2021/05/26 11:12:55;;;;;;;2.85;1.88;;;;;;;;;;5028261;28;20429;-75
2021/05/26 11:15:43;;;;;;;3.10;1.70;;;;;;;;;;5037270;28;20043;-75
2021/05/26 11:18:30;;;;;;;3.80;1.90;;;;;;;;;;5012677;28;20607;-75
2021/05/26 11:21:15;;;;;;;5.75;2.03;;;;;;;;;;5047836;28;20473;-76
2021/05/26 11:24:00;;;;;;;2.97;2.00;;;;;;;;;;5016667;28;20110;-77
2021/05/26 11:26:45;;;;;;;2.97;1.75;;;;;;;;;;5013208;28;20035;-76
2021/05/26 11:29:29;;;;;;;3.35;1.85;;;;;;;;;;5012387;28;20847;-76
2021/05/26 11:32:15;;;;;;;2.38;1.70;;;;;;;;;;5027881;28;20036;-76
2021/05/26 11:35:03;;;;;;;3.63;2.28;;;;;;;;;;5023842;28;20087;-74
2021/05/26 11:37:48;;;;;;;3.95;1.85;;;;;;;;;;5016283;28;20051;-76
2021/05/26 11:40:33;;;;;;;4.20;1.92;;;;;;;;;;5014795;28;20071;-77
2021/05/26 11:43:18;;;;;;;2.65;1.80;;;;;;;;;;5009748;28;20047;-76
2021/05/26 11:46:03;;;;;;;2.88;1.70;;;;;;;;;;5009186;28;20052;-76
2021/05/26 11:48:48;;;;;;;3.33;1.90;;;;;;;;;;5010771;28;20101;-76
2021/05/26 11:51:37;;;;;;;3.08;1.95;;;;;;;;;;5008722;28;20043;-76
2021/05/26 11:54:21;;;;;;;3.72;1.70;;;;;;;;;;5028928;28;20048;-82
2021/05/26 11:57:07;;;;;;;3.75;1.98;;;;;;;;;;5004288;28;20056;-86
2021/05/26 11:59:52;;;;;;;4.13;1.70;;;;;;;;;;5008041;28;20040;-79
2021/05/26 12:02:57;;;;;;;2.15;1.75;;;;;;;;;;5028440;28;20044;-79
2021/05/26 12:05:51;;;;;;;3.08;1.83;;;;;;;;;;5017565;28;20134;-78
2021/05/26 12:08:40;;;;;;;2.95;1.80;;;;;;;;;;5010630;28;20663;-79
2021/05/26 12:11:27;;;;;;;1.65;1.50;;;;;;;;;;5013025;28;20414;-76
2021/05/26 12:14:15;;;;;;;2.28;1.70;;;;;;;;;;5037241;28;20044;-78
2021/05/26 12:17:00;;;;;;;3.78;2.05;;;;;;;;;;5028461;28;20521;-77
2021/05/26 12:19:45;;;;;;;4.22;1.70;;;;;;;;;;5028203;28;20137;-77
2021/05/26 12:22:37;;;;;;;2.40;1.70;;;;;;;;;;5009629;28;20516;-77
2021/05/26 12:25:22;;;;;;;;;;;;;;;;;;5010662;28;20056;-77
2021/05/26 12:28:13;;;;;;;3.45;1.80;;;;;;;;;;5025236;28;19920;-76
2021/05/26 12:30:58;;;;;;;3.05;1.85;;;;;;;;;;4996368;28;20048;-75
2021/05/26 12:33:50;;;;;;;3.95;1.60;;;;;;;;;;5026292;28;20115;-77
2021/05/26 12:36:37;;;;;;;2.53;1.60;;;;;;;;;;5010079;28;20068;-77
2021/05/26 12:39:23;;;;;;;3.17;1.90;;;;;;;;;;5010671;28;20124;-74
2021/05/26 12:42:08;;;;;;;2.97;1.90;;;;;;;;;;4996710;28;20091;-77
2021/05/26 12:45:07;;;;;;;2.35;1.90;;;;;;;;;;5020166;28;20071;-78
2021/05/26 12:47:51;;;;;;;3.90;1.70;;;;;;;;;;5027782;28;20047;-78
2021/05/26 12:50:39;;;;;;;1.85;1.60;;;;;;;;;;5014764;28;20072;-78
2021/05/26 12:53:24;;;;;;;3.33;1.63;;;;;;;;;;5012601;28;20186;-78
2021/05/26 12:56:08;;;;;;;2.60;1.70;;;;;;;;;;5024055;28;20406;-78
2021/05/26 12:58:53;;;;;;;3.63;2.03;;;;;;;;;;5013627;28;20053;-78
2021/05/26 13:01:44;;;;;;;2.72;1.85;;;;;;;;;;5013566;28;20060;-78
2021/05/26 13:04:28;;;;;;;4.30;2.00;;;;;;;;;;5013432;28;20092;-78
2021/05/26 13:07:45;;;;;;;2.67;1.70;;;;;;;;;;5047351;28;20043;-77
2021/05/26 13:10:30;;;;;;;2.63;1.75;;;;;;;;;;5034956;28;20044;-78
2021/05/26 13:13:18;;;;;;;3.95;1.70;;;;;;;;;;4999706;28;20164;-78
2021/05/26 13:16:11;;;;;;;2.80;1.70;;;;;;;;;;5004802;28;20061;-78
2021/05/26 13:18:56;;;;;;;2.75;1.90;;;;;;;;;;5014164;28;20544;-79
2021/05/26 13:21:44;;;;;;;3.20;1.80;;;;;;;;;;5013823;28;20895;-78
2021/05/26 13:24:29;;;;;;;2.58;1.73;;;;;;;;;;5009686;28;20063;-77
2021/05/26 13:27:13;;;;;;;3.35;2.00;;;;;;;;;;5000885;28;20048;-78
2021/05/26 13:29:57;;;;;;;3.00;1.60;;;;;;;;;;5019488;28;20473;-77
2021/05/26 13:32:42;;;;;;;3.38;1.92;;;;;;;;;;5028188;28;20043;-78
2021/05/26 13:35:27;;;;;;;2.28;1.60;;;;;;;;;;5019355;28;20063;-78
2021/05/26 13:38:12;;;;;;;3.13;1.77;;;;;;;;;;5047618;28;20106;-78
2021/05/26 13:40:56;;;;;;;2.20;1.63;;;;;;;;;;5015805;28;20417;-79
2021/05/26 13:43:41;;;;;;;2.60;1.50;;;;;;;;;;5012539;28;20128;-78
2021/05/26 13:46:27;;;;;;;2.25;1.80;;;;;;;;;;4998913;28;20103;-78
2021/05/26 13:49:12;;;;;;;2.83;1.77;;;;;;;;;;5000090;28;20417;-78
2021/05/26 13:51:57;;;;;;;3.50;1.65;;;;;;;;;;5037821;28;20203;-78
2021/05/26 13:54:41;;;;;;;3.78;1.75;;;;;;;;;;5012490;28;20044;-77
2021/05/26 13:57:26;;;;;;;3.30;1.95;;;;;;;;;;5027353;28;20112;-77
2021/05/26 14:00:11;;;;;;;4.05;1.70;;;;;;;;;;5047114;28;20056;-78
2021/05/26 14:02:56;;;;;;;2.80;1.75;;;;;;;;;;5012328;28;20072;-78
2021/05/26 14:05:41;;;;;;;3.17;1.90;;;;;;;;;;5011825;28;20083;-78
2021/05/26 14:08:26;;;;;;;3.25;1.70;;;;;;;;;;5027358;28;20052;-77
2021/05/26 14:13:47;;;;;;;2.35;1.50;;;;;;;;;;5022103;26;20039;-81
2021/05/26 14:16:31;;;;;;;2.35;1.83;;;;;;;;;;5084441;28;20097;-81
2021/05/26 14:19:16;;;;;;;2.50;1.80;;;;;;;;;;5092799;28;20062;-81
2021/05/26 14:22:01;;;;;;;3.15;1.90;;;;;;;;;;5069007;28;20096;-83
2021/05/26 14:24:45;;;;;;;3.28;1.75;;;;;;;;;;5050793;28;20070;-84
2021/05/26 14:27:30;;;;;;;3.10;1.70;;;;;;;;;;5071900;28;20070;-81
2021/05/26 14:30:15;;;;;;;3.22;1.70;;;;;;;;;;5051661;28;20442;-76
2021/05/26 14:33:00;;;;;;;6.15;2.33;;;;;;;;;;5106507;28;20088;-76
2021/05/26 14:35:46;;;;;;;7.78;2.28;;;;;;;;;;5083996;28;20423;-74
2021/05/26 14:38:40;;;;;;;5.28;1.90;;;;;;;;;;5104809;28;20058;-76
2021/05/26 14:41:26;;;;;;;3.67;2.00;;;;;;;;;;5059530;28;20957;-76
2021/05/26 14:44:10;;;;;;;3.25;1.75;;;;;;;;;;5071752;28;20062;-76
2021/05/26 14:46:56;;;;;;;4.57;1.80;;;;;;;;;;5051338;28;20098;-76
2021/05/26 14:49:41;;;;;;;2.10;1.70;;;;;;;;;;5065775;28;20455;-75
2021/05/26 14:52:25;;;;;;;4.68;1.95;;;;;;;;;;5083538;28;20042;-76
2021/05/26 14:55:10;;;;;;;2.67;1.90;;;;;;;;;;5076523;28;20794;-76
2021/05/26 14:57:54;;;;;;;4.22;1.75;;;;;;;;;;5066083;28;20075;-77
2021/05/26 15:00:39;;;;;;;6.22;2.00;;;;;;;;;;5062956;28;20053;-76
2021/05/26 15:03:24;;;;;;;5.53;2.00;;;;;;;;;;5059270;28;20038;-77
2021/05/26 15:06:08;;;;;;;2.83;1.73;;;;;;;;;;5071769;28;20093;-77
2021/05/26 15:08:54;;;;;;;4.68;2.03;;;;;;;;;;5085855;28;20097;-77
2021/05/26 15:11:39;;;;;;;5.90;1.73;;;;;;;;;;5062018;28;20026;-81
2021/05/26 15:14:24;;;;;;;2.63;1.90;;;;;;;;;;5093235;28;20043;-78
2021/05/26 15:17:08;;;;;;;3.95;2.10;;;;;;;;;;5061677;28;20138;-76
2021/05/26 15:19:53;;;;;;;8.45;1.60;;;;;;;;;;5093313;28;20082;-77
2021/05/26 15:22:37;;;;;;;2.85;1.90;;;;;;;;;;5070564;28;20141;-77
2021/05/26 15:25:22;;;;;;;3.15;1.80;;;;;;;;;;5085413;28;20042;-76
2021/05/26 15:28:08;;;;;;;3.38;1.60;;;;;;;;;;5069335;28;20125;-77
2021/05/26 15:30:53;;;;;;;4.75;2.00;;;;;;;;;;5067237;28;20097;-76
2021/05/26 15:33:37;;;;;;;7.50;2.15;;;;;;;;;;5103159;28;20090;-77
2021/05/26 15:36:22;;;;;;;3.40;1.95;;;;;;;;;;5070794;28;20151;-76
2021/05/26 15:39:11;;;;;;;3.58;1.85;;;;;;;;;;5068548;28;20554;-76
2021/05/26 15:41:55;;;;;;;3.03;1.60;;;;;;;;;;5104019;28;20047;-76
2021/05/26 15:44:40;;;;;;;2.58;1.70;;;;;;;;;;5104434;28;20125;-75
2021/05/26 15:47:25;;;;;;;2.88;1.75;;;;;;;;;;5046551;28;20051;-79
2021/05/26 15:50:09;;;;;;;2.30;1.60;;;;;;;;;;5086772;28;20049;-77
2021/05/26 15:52:54;;;;;;;2.67;1.50;;;;;;;;;;5070209;28;20065;-79
2021/05/26 15:55:39;;;;;;;3.53;1.90;;;;;;;;;;5067089;28;20466;-76
2021/05/26 15:58:24;;;;;;;2.95;1.73;;;;;;;;;;5064923;28;20470;-76
2021/05/26 16:01:09;;;;;;;3.92;1.80;;;;;;;;;;5087188;28;20043;-76
2021/05/26 16:03:54;;;;;;;3.75;1.80;;;;;;;;;;5075483;28;20114;-76
2021/05/26 16:06:39;;;;;;;2.58;1.92;;;;;;;;;;5055389;28;20508;-76
2021/05/26 16:09:24;;;;;;;2.88;1.90;;;;;;;;;;5069982;28;20043;-76
2021/05/26 16:12:10;;;;;;;3.35;1.83;;;;;;;;;;5074117;28;20120;-75
2021/05/26 16:14:55;;;;;;;5.65;2.15;;;;;;;;;;5069287;28;20039;-76
2021/05/26 16:17:40;;;;;;;3.65;1.92;;;;;;;;;;5069127;28;20038;-78
2021/05/26 16:20:25;;;;;;;2.90;1.65;;;;;;;;;;5062740;28;20454;-76
2021/05/26 16:23:09;;;;;;;4.43;1.80;;;;;;;;;;5067601;28;20042;-76
2021/05/26 16:25:54;;;;;;;5.20;1.90;;;;;;;;;;5083518;28;20046;-76
2021/05/26 16:28:40;;;;;;;5.70;2.70;;;;;;;;;;5071066;28;20070;-78
2021/05/26 16:31:25;;;;;;;5.30;2.20;;;;;;;;;;5090846;28;20078;-79
2021/05/26 16:34:12;;;;;;;5.78;2.15;;;;;;;;;;5064522;28;20038;-78
2021/05/26 16:36:56;;;;;;;3.75;1.90;;;;;;;;;;5080163;28;20145;-79
2021/05/26 16:39:41;;;;;;;3.75;2.05;;;;;;;;;;5063180;28;20050;-76